Time;durP1;ratioP1;P1;durP2;ratioP2;P2;SDS_P1;SDS_P2;PMS_P1;PMS_P2;Temp;Humidity;BMP_temperature;BMP_pressure;BME280_temperature;BME280_humidity;BME280_pressure;Samples;Min_cycle;Max_cycle;Signal;HPM_P1;HPM_P2
2021/08/05 00:05:13;;;;;;;47.20;43.80;;;;;;;16.88;100.00;101115.62;1972029;73;33443;-75
2021/08/05 00:10:37;;;;;;;48.33;44.63;;;;;;;16.90;100.00;101105.72;1971884;73;33000;-75
2021/08/05 00:16:02;;;;;;;48.70;45.00;;;;;;;16.92;100.00;101101.20;1971928;73;31000;-75
2021/08/05 00:21:27;;;;;;;48.23;44.40;;;;;;;17.12;100.00;101093.05;1972054;73;32986;-75
2021/08/05 00:26:52;;;;;;;46.90;43.30;;;;;;;16.89;100.00;101085.02;1972078;73;33459;-75
2021/08/05 00:32:17;;;;;;;46.23;42.80;;;;;;;16.93;100.00;101079.84;1971856;73;31000;-75
2021/08/05 00:37:41;;;;;;;46.47;43.00;;;;;;;16.80;100.00;101073.17;1972053;73;30950;-75
2021/08/05 00:43:06;;;;;;;47.43;43.53;;;;;;;16.73;100.00;101065.77;1971874;73;31053;-75
2021/08/05 00:48:33;;;;;;;47.90;44.37;;;;;;;16.42;100.00;101059.86;1972070;73;32985;-75
2021/08/05 00:54:01;;;;;;;47.67;44.07;;;;;;;16.56;100.00;101055.81;1971849;73;33031;-75
2021/08/05 00:59:25;;;;;;;47.17;43.43;;;;;;;16.39;100.00;101063.54;1971988;73;32899;-75
2021/08/05 01:04:55;;;;;;;50.43;46.47;;;;;;;16.12;100.00;101063.67;1972082;73;31037;-75
2021/08/05 01:10:25;;;;;;;47.70;43.77;;;;;;;15.95;100.00;101064.93;1971839;73;32904;-75
2021/08/05 01:13:00;;;;;;;48.03;44.40;;;;;;;15.86;100.00;101072.42;1934781;74;26673;-75
2021/08/05 01:18:28;;;;;;;47.23;43.60;;;;;;;16.07;100.00;101061.56;1972012;73;33007;-75
2021/08/05 01:23:57;;;;;;;47.33;43.60;;;;;;;16.15;100.00;101058.00;1971870;73;33386;-75
2021/08/05 01:29:25;;;;;;;48.27;44.67;;;;;;;16.25;100.00;101054.95;1972165;73;33396;-73
2021/08/05 01:34:50;;;;;;;47.50;43.80;;;;;;;16.24;100.00;101048.52;1971984;73;32995;-75
2021/08/05 01:40:17;;;;;;;47.67;44.20;;;;;;;16.37;100.00;101039.22;1971856;73;32989;-75
2021/08/05 01:45:41;;;;;;;48.90;45.10;;;;;;;16.06;100.00;101033.27;1972058;73;33522;-75
2021/08/05 01:51:09;;;;;;;47.87;44.27;;;;;;;16.22;100.00;101035.95;1972026;73;33440;-75
2021/08/05 01:56:35;;;;;;;48.37;44.53;;;;;;;16.10;100.00;101029.52;1971838;73;31012;-75
2021/08/05 02:02:00;;;;;;;48.33;44.80;;;;;;;16.03;100.00;101022.14;1972061;73;33394;-75
2021/08/05 02:07:32;;;;;;;49.37;45.73;;;;;;;15.93;100.00;101018.17;1971856;73;33139;-75
2021/08/05 02:13:01;;;;;;;50.67;46.70;;;;;;;15.91;100.00;101008.70;1971926;73;32943;-75
2021/08/05 02:18:31;;;;;;;48.23;44.67;;;;;;;15.96;100.00;101001.32;1972049;73;31454;-75
2021/08/05 02:23:58;;;;;;;48.63;45.13;;;;;;;15.97;100.00;101004.35;1971921;73;33010;-75
2021/08/05 02:29:25;;;;;;;48.57;45.07;;;;;;;15.89;100.00;101008.18;1971859;73;32947;-75
2021/08/05 02:34:51;;;;;;;50.00;46.40;;;;;;;15.80;100.00;100995.23;1971865;73;33040;-75
2021/08/05 02:40:17;;;;;;;48.50;44.97;;;;;;;15.83;100.00;100981.42;1969156;71;32913;-75
2021/08/05 02:45:41;;;;;;;49.43;45.67;;;;;;;15.77;100.00;100981.88;1972014;73;33363;-75
2021/08/05 02:51:07;;;;;;;49.83;46.20;;;;;;;15.62;100.00;100985.02;1971907;73;33005;-75
2021/08/05 02:56:33;;;;;;;47.57;44.07;;;;;;;15.48;100.00;100980.85;1971889;73;32903;-75
2021/08/05 03:01:58;;;;;;;49.13;45.53;;;;;;;15.38;100.00;100974.91;1972022;73;33371;-74
2021/08/05 03:07:27;;;;;;;49.77;45.87;;;;;;;15.20;100.00;100977.83;1971816;73;32935;-75
2021/08/05 03:12:53;;;;;;;48.27;44.63;;;;;;;15.44;100.00;100976.46;1971871;73;33010;-75
2021/08/05 03:18:17;;;;;;;50.77;46.87;;;;;;;15.59;100.00;100980.06;1971919;73;33028;-75
2021/08/05 03:23:42;;;;;;;52.73;48.73;;;;;;;15.64;100.00;100968.18;1971850;73;33565;-75
2021/08/05 03:29:07;;;;;;;50.57;46.77;;;;;;;15.57;100.00;100966.97;1971814;73;33032;-75
2021/08/05 03:34:31;;;;;;;49.40;45.50;;;;;;;15.79;100.00;100965.00;1971877;73;32986;-73
2021/08/05 03:39:56;;;;;;;52.30;48.23;;;;;;;15.53;100.00;100971.55;1972026;73;33086;-75
2021/08/05 03:45:21;;;;;;;50.50;46.60;;;;;;;15.63;100.00;100967.92;1971907;73;33108;-75
2021/08/05 03:50:46;;;;;;;50.47;46.77;;;;;;;15.58;100.00;100963.00;1971920;73;32987;-73
2021/08/05 03:56:11;;;;;;;49.87;46.17;;;;;;;15.36;100.00;100957.58;1972069;73;33398;-75
2021/08/05 04:01:35;;;;;;;48.20;44.33;;;;;;;15.34;100.00;100953.45;1904893;73;39719;-75
2021/08/05 04:07:00;;;;;;;49.03;45.23;;;;;;;15.02;100.00;100955.26;1971874;73;32902;-75
2021/08/05 04:12:24;;;;;;;51.17;47.27;;;;;;;14.86;100.00;100948.34;1972060;73;32926;-75
2021/08/05 04:17:49;;;;;;;50.57;46.57;;;;;;;14.70;100.00;100944.77;1972058;73;33373;-74
2021/08/05 04:23:14;;;;;;;50.17;46.17;;;;;;;14.46;100.00;100952.77;1972012;73;32968;-75
2021/08/05 04:28:39;;;;;;;49.53;45.60;;;;;;;14.61;100.00;100942.44;1971909;73;32901;-75
2021/08/05 04:34:03;;;;;;;49.30;45.57;;;;;;;14.40;100.00;100945.63;1971843;73;32965;-75
2021/08/05 04:39:29;;;;;;;49.47;45.70;;;;;;;14.36;100.00;100932.02;1972067;73;33441;-75
2021/08/05 04:44:56;;;;;;;51.17;47.27;;;;;;;14.26;100.00;100931.33;1972029;73;32901;-75
2021/08/05 04:50:21;;;;;;;52.43;48.30;;;;;;;14.17;100.00;100931.22;1972045;73;33431;-75
2021/08/05 04:55:47;;;;;;;51.13;47.03;;;;;;;14.24;100.00;100933.06;1972135;73;33527;-75
2021/08/05 05:01:12;;;;;;;48.43;44.43;;;;;;;14.17;100.00;100922.83;1972178;73;33427;-75
2021/08/05 05:06:36;;;;;;;52.87;48.97;;;;;;;14.13;100.00;100925.42;1972203;73;33383;-75
2021/08/05 05:12:01;;;;;;;48.93;45.20;;;;;;;14.28;100.00;100920.69;1971835;73;32889;-75
2021/08/05 05:17:25;;;;;;;51.40;47.47;;;;;;;14.17;100.00;100922.83;1972080;73;33383;-76
2021/08/05 05:22:50;;;;;;;51.83;47.83;;;;;;;14.34;100.00;100923.06;1972085;73;33398;-74
2021/08/05 05:28:15;;;;;;;51.67;47.67;;;;;;;14.36;100.00;100923.64;1972120;73;32909;-75
2021/08/05 05:33:40;;;;;;;52.17;48.07;;;;;;;14.59;100.00;100917.57;1972024;72;32885;-75
2021/08/05 05:39:04;;;;;;;53.10;48.90;;;;;;;14.91;100.00;100914.67;1971908;73;33051;-75
2021/08/05 05:44:29;;;;;;;53.63;49.33;;;;;;;15.01;100.00;100910.27;1971856;73;32952;-75
2021/08/05 05:49:54;;;;;;;53.30;49.00;;;;;;;15.31;100.00;100896.72;1972033;73;33505;-75
2021/08/05 05:55:19;;;;;;;53.90;49.67;;;;;;;15.23;100.00;100901.07;1972050;73;32896;-76
2021/08/05 06:00:43;;;;;;;55.00;50.53;;;;;;;15.37;100.00;100894.87;1972159;73;33021;-75
2021/08/05 06:06:08;;;;;;;57.53;52.93;;;;;;;15.49;100.00;100891.50;1972113;73;32896;-75
2021/08/05 06:11:32;;;;;;;58.70;54.30;;;;;;;15.57;100.00;100880.17;1972038;72;32889;-75
2021/08/05 06:16:57;;;;;;;59.60;55.33;;;;;;;15.75;100.00;100867.35;1972124;73;33366;-73
2021/08/05 06:22:21;;;;;;;59.90;55.50;;;;;;;15.84;100.00;100870.21;1971858;73;32971;-75
2021/08/05 06:27:48;;;;;;;60.73;56.23;;;;;;;15.99;100.00;100868.42;1941003;74;33061;-74
2021/08/05 06:33:14;;;;;;;62.67;58.10;;;;;;;16.15;100.00;100865.45;1972124;73;33353;-75
2021/08/05 06:38:39;;;;;;;62.57;58.13;;;;;;;16.25;100.00;100865.19;1972136;73;33424;-75
2021/08/05 06:44:04;;;;;;;59.47;55.00;;;;;;;16.34;100.00;100851.20;1972036;72;32930;-77
2021/08/05 06:49:28;;;;;;;61.60;56.63;;;;;;;16.42;100.00;100850.98;1972179;73;33466;-76
2021/08/05 06:54:53;;;;;;;63.33;58.53;;;;;;;16.52;100.00;100846.45;1972160;73;33375;-76
2021/08/05 07:00:18;;;;;;;59.77;55.17;;;;;;;16.67;100.00;100850.27;1972111;73;31423;-76
2021/08/05 07:05:49;;;;;;;61.73;57.03;;;;;;;16.84;100.00;100847.50;1971929;73;30923;-77
2021/08/05 07:11:15;;;;;;;58.07;53.53;;;;;;;16.94;100.00;100832.34;1971888;73;33026;-77
2021/08/05 07:16:40;;;;;;;57.73;53.23;;;;;;;17.07;100.00;100824.34;1971916;73;30933;-77
2021/08/05 07:22:05;;;;;;;55.37;51.07;;;;;;;17.36;100.00;100812.44;1951533;73;32908;-74
2021/08/05 07:27:28;;;;;;;55.20;51.10;;;;;;;17.62;100.00;100800.05;1972086;73;33410;-73
2021/08/05 07:32:53;;;;;;;53.30;49.33;;;;;;;17.49;100.00;100798.80;1972079;73;33015;-77
2021/08/05 07:38:17;;;;;;;50.10;46.10;;;;;;;17.62;100.00;100783.20;1972121;73;33361;-78
2021/08/05 07:43:41;;;;;;;52.50;48.80;;;;;;;18.02;100.00;100762.63;1971871;73;30967;-77
2021/08/05 07:49:06;;;;;;;46.30;42.70;;;;;;;18.46;100.00;100762.66;1971930;73;31042;-78
2021/08/05 07:54:31;;;;;;;48.57;44.97;;;;;;;18.36;100.00;100753.20;1972043;73;30976;-78
2021/08/05 07:59:59;;;;;;;50.27;46.27;;;;;;;18.48;100.00;100744.84;1971935;73;30962;-76
2021/08/05 08:05:24;;;;;;;48.17;44.67;;;;;;;18.52;100.00;100740.79;1971984;73;31055;-73
2021/08/05 08:10:49;;;;;;;44.03;40.73;;;;;;;18.59;100.00;100726.45;1972107;73;31533;-78
2021/08/05 08:16:35;;;;;;;43.73;40.53;;;;;;;18.70;100.00;100724.64;2016341;71;30984;-78
2021/08/05 08:22:00;;;;;;;42.50;39.30;;;;;;;18.66;100.00;100713.23;1963775;71;31488;-75
2021/08/05 08:27:24;;;;;;;42.17;39.17;;;;;;;18.86;100.00;100704.55;1972150;73;31574;-73
2021/08/05 08:33:08;;;;;;;43.50;40.40;;;;;;;19.45;100.00;100689.66;2016594;71;31343;-74
2021/08/05 08:38:32;;;;;;;38.83;36.00;;;;;;;19.52;100.00;100691.31;1971896;72;30959;-78
2021/08/05 08:43:57;;;;;;;39.07;36.30;;;;;;;19.62;100.00;100694.27;1972071;73;31543;-73
2021/08/05 08:49:25;;;;;;;41.10;38.30;;;;;;;19.38;100.00;100690.80;1971912;73;31136;-75
2021/08/05 08:54:53;;;;;;;38.73;36.03;;;;;;;19.34;100.00;100680.78;1971951;73;30949;-75
2021/08/05 09:00:19;;;;;;;37.73;35.23;;;;;;;19.66;100.00;100665.04;1971882;73;31150;-74
2021/08/05 09:05:44;;;;;;;38.37;35.87;;;;;;;19.95;100.00;100657.77;1971916;73;30935;-78
2021/08/05 09:11:10;;;;;;;38.20;35.57;;;;;;;20.22;100.00;100648.34;1971962;73;31011;-75
2021/08/05 09:16:35;;;;;;;37.63;35.23;;;;;;;19.92;100.00;100637.34;1972056;73;31050;-76
2021/08/05 09:22:06;;;;;;;41.23;38.70;;;;;;;19.81;100.00;100631.13;1972033;73;31431;-78
2021/08/05 09:27:35;;;;;;;35.53;33.30;;;;;;;20.09;100.00;100619.92;1972140;73;31636;-73
2021/08/05 09:33:08;;;;;;;34.27;32.17;;;;;;;20.47;100.00;100613.28;1971876;73;30947;-72
2021/08/05 09:38:33;;;;;;;34.83;32.77;;;;;;;20.54;100.00;100611.28;1972181;73;31006;-75
2021/08/05 09:44:08;;;;;;;35.23;33.07;;;;;;;20.28;100.00;100604.62;1971907;73;30929;-76
2021/08/05 09:49:34;;;;;;;34.87;32.87;;;;;;;20.40;100.00;100600.38;1971964;73;30962;-73
2021/08/05 09:55:01;;;;;;;34.17;32.07;;;;;;;20.57;100.00;100588.80;1972172;73;31025;-78
2021/08/05 10:00:27;;;;;;;31.87;30.07;;;;;;;20.58;100.00;100587.60;1972118;73;30927;-73
2021/08/05 10:05:59;;;;;;;33.30;31.30;;;;;;;20.51;100.00;100575.29;1971917;73;31024;-75
2021/08/05 10:11:38;;;;;;;30.97;29.37;;;;;;;20.68;100.00;100565.10;1971899;73;31008;-74
2021/08/05 10:17:18;;;;;;;33.23;31.33;;;;;;;20.64;100.00;100558.54;1971948;73;30955;-76
2021/08/05 10:22:43;;;;;;;33.20;31.40;;;;;;;21.03;100.00;100546.91;1959868;71;31014;-73
2021/08/05 10:28:10;;;;;;;33.67;31.77;;;;;;;21.08;100.00;100535.34;1971891;73;30951;-75
2021/08/05 10:33:36;;;;;;;35.07;33.13;;;;;;;20.53;100.00;100536.27;1972179;73;30994;-73
2021/08/05 10:39:01;;;;;;;32.23;30.50;;;;;;;20.71;100.00;100536.18;1971879;73;30940;-75
2021/08/05 10:44:28;;;;;;;30.77;29.03;;;;;;;20.79;100.00;100531.75;1971891;73;30943;-73
2021/08/05 10:49:56;;;;;;;28.43;26.83;;;;;;;21.10;100.00;100525.32;1971948;73;31039;-76
2021/08/05 10:55:38;;;;;;;31.47;29.67;;;;;;;21.13;100.00;100513.94;1971920;73;31016;-73
2021/08/05 11:01:10;;;;;;;29.10;27.60;;;;;;;21.37;100.00;100505.84;1971931;73;30938;-74
2021/08/05 11:06:40;;;;;;;27.90;26.50;;;;;;;21.30;100.00;100505.91;1971946;73;30930;-78
2021/08/05 11:12:45;;;;;;;29.77;28.17;;;;;;;21.22;100.00;100494.80;1972135;73;31570;-73
2021/08/05 11:18:40;;;;;;;29.03;27.43;;;;;;;21.33;100.00;100478.92;1972159;73;31532;-73
2021/08/05 11:24:55;;;;;;;28.40;26.87;;;;;;;21.36;100.00;100468.28;1972198;73;31490;-78
2021/08/05 11:30:45;;;;;;;31.87;30.27;;;;;;;21.08;100.00;100467.56;1971903;73;30955;-74
2021/08/05 11:34:07;;;;;;;31.60;30.00;;;;;;;21.22;100.00;100467.97;1934836;74;24184;-74
2021/08/05 11:39:51;;;;;;;30.90;29.30;;;;;;;21.39;100.00;100448.38;1971954;73;31011;-74
2021/08/05 11:45:16;;;;;;;30.53;28.93;;;;;;;21.55;100.00;100437.85;1972122;73;31088;-73
2021/08/05 11:50:42;;;;;;;30.12;28.65;;;;;;;21.62;100.00;100430.34;1971996;73;31004;-74
2021/08/05 11:56:12;;;;;;;28.70;27.20;;;;;;;21.54;100.00;100416.42;1972127;73;33465;-73
2021/08/05 12:01:38;;;;;;;32.43;30.77;;;;;;;21.13;100.00;100415.91;1971905;72;30934;-74
2021/08/05 12:07:24;;;;;;;31.07;29.47;;;;;;;21.20;100.00;100411.00;1972113;73;31533;-73
2021/08/05 12:13:06;;;;;;;29.57;27.97;;;;;;;21.57;100.00;100398.12;1971919;73;31017;-76
2021/08/05 12:18:35;;;;;;;30.93;29.33;;;;;;;21.43;100.00;100404.08;1971982;73;30937;-74
2021/08/05 12:24:02;;;;;;;30.37;28.60;;;;;;;21.42;100.00;100388.30;1971927;72;31029;-76
2021/08/05 12:29:26;;;;;;;29.63;28.07;;;;;;;21.30;100.00;100382.19;1972174;73;31034;-76
2021/08/05 12:34:51;;;;;;;29.57;27.70;;;;;;;21.08;100.00;100372.37;1971842;73;30942;-74
2021/08/05 12:40:18;;;;;;;34.20;32.10;;;;;;;20.96;100.00;100365.42;1971888;73;30971;-78
2021/08/05 12:45:45;;;;;;;36.60;34.40;;;;;;;21.03;100.00;100359.94;1972124;73;31508;-74
2021/08/05 12:51:16;;;;;;;34.33;32.33;;;;;;;21.24;100.00;100359.05;1972122;73;30935;-75
2021/08/05 12:56:43;;;;;;;32.70;30.90;;;;;;;21.15;100.00;100335.84;1972126;73;31515;-76
2021/08/05 13:02:09;;;;;;;31.13;29.43;;;;;;;21.03;100.00;100326.64;1971939;73;31028;-75
2021/08/05 13:07:41;;;;;;;31.30;29.70;;;;;;;21.13;100.00;100314.81;1971918;73;30986;-75
2021/08/05 13:13:06;;;;;;;33.97;31.97;;;;;;;21.08;100.00;100324.95;1972090;73;31527;-74
2021/08/05 13:18:32;;;;;;;40.50;37.90;;;;;;;20.90;100.00;100328.17;1971895;73;31012;-74
2021/08/05 13:24:17;;;;;;;43.53;40.40;;;;;;;20.56;100.00;100328.95;1971968;73;31058;-78
2021/08/05 13:29:47;;;;;;;43.83;40.83;;;;;;;20.78;100.00;100307.71;1972094;73;31533;-78
2021/08/05 13:35:15;;;;;;;41.67;38.80;;;;;;;20.72;100.00;100285.17;1972020;73;30972;-78
2021/08/05 13:40:41;;;;;;;41.37;38.67;;;;;;;20.83;100.00;100277.20;1972142;73;31104;-76
2021/08/05 13:46:08;;;;;;;41.17;38.47;;;;;;;20.97;100.00;100271.63;1972177;72;31462;-75
2021/08/05 13:51:34;;;;;;;40.30;37.60;;;;;;;20.87;100.00;100252.69;1972218;73;31484;-75
2021/08/05 13:57:02;;;;;;;39.33;36.73;;;;;;;20.91;100.00;100249.94;1972026;73;31029;-77
2021/08/05 14:02:27;;;;;;;40.13;37.53;;;;;;;20.68;100.00;100242.76;1971900;73;31051;-75
2021/08/05 14:07:54;;;;;;;41.33;38.27;;;;;;;20.58;100.00;100248.17;1971896;73;31013;-74
2021/08/05 14:13:19;;;;;;;45.37;42.07;;;;;;;20.07;100.00;100264.98;1972076;73;31620;-74
2021/08/05 14:18:44;;;;;;;48.53;44.83;;;;;;;19.87;100.00;100264.07;1971852;73;31150;-75
2021/08/05 14:24:09;;;;;;;46.57;43.07;;;;;;;19.46;100.00;100268.18;1972132;73;31001;-75
2021/08/05 14:29:33;;;;;;;45.00;41.60;;;;;;;19.44;100.00;100260.66;1971951;73;31006;-76
2021/08/05 14:35:10;;;;;;;46.07;42.57;;;;;;;19.64;100.00;100239.06;1971924;73;31026;-77
2021/08/05 14:40:35;;;;;;;46.43;43.10;;;;;;;20.06;100.00;100234.35;1972130;73;31573;-74
2021/08/05 14:46:00;;;;;;;46.07;42.73;;;;;;;20.15;100.00;100230.77;1972133;73;31460;-78
2021/08/05 14:51:26;;;;;;;45.57;42.23;;;;;;;19.81;100.00;100202.71;1971961;73;31064;-78
2021/08/05 14:56:50;;;;;;;44.93;41.73;;;;;;;19.90;100.00;100190.64;1972079;73;30986;-78
2021/08/05 15:02:21;;;;;;;46.10;42.60;;;;;;;19.80;100.00;100182.75;1971945;73;30965;-77
2021/08/05 15:07:48;;;;;;;45.97;42.57;;;;;;;19.89;100.00;100179.16;1971981;73;30972;-78
2021/08/05 15:13:13;;;;;;;46.27;42.93;;;;;;;19.71;100.00;100166.02;1972002;73;30965;-78
2021/08/05 15:18:38;;;;;;;47.03;43.63;;;;;;;19.61;100.00;100163.73;1971888;73;30988;-75
2021/08/05 15:24:02;;;;;;;46.50;43.10;;;;;;;19.66;100.00;100136.70;1972126;73;30969;-74
2021/08/05 15:29:46;;;;;;;46.80;43.40;;;;;;;19.91;100.00;100128.27;2016038;71;30970;-75
2021/08/05 15:35:11;;;;;;;46.23;42.83;;;;;;;19.81;100.00;100120.98;1971938;73;31114;-75
2021/08/05 15:40:37;;;;;;;46.27;42.67;;;;;;;19.77;100.00;100105.36;1967494;71;31055;-78
2021/08/05 15:46:00;;;;;;;44.63;41.30;;;;;;;19.68;100.00;100088.44;1971891;72;31004;-78
2021/08/05 15:51:25;;;;;;;47.10;43.70;;;;;;;19.48;100.00;100091.16;1971907;73;31036;-78
2021/08/05 15:56:49;;;;;;;47.53;44.23;;;;;;;19.41;100.00;100084.50;1971967;73;31085;-78
2021/08/05 16:02:14;;;;;;;46.57;43.17;;;;;;;19.27;100.00;100091.98;1972088;73;31563;-76
2021/08/05 16:07:40;;;;;;;47.37;43.87;;;;;;;19.25;100.00;100089.31;1972138;73;30963;-78
2021/08/05 16:13:07;;;;;;;46.13;42.67;;;;;;;18.97;100.00;100077.50;1971903;73;31040;-75
2021/08/05 16:18:32;;;;;;;48.90;45.27;;;;;;;18.91;100.00;100071.89;1972180;73;31021;-74
2021/08/05 16:23:58;;;;;;;51.07;47.47;;;;;;;18.88;100.00;100057.73;1971871;73;31024;-76
2021/08/05 16:29:26;;;;;;;50.23;46.63;;;;;;;18.74;100.00;100055.33;1971887;73;30983;-75
2021/08/05 16:34:51;;;;;;;48.03;44.53;;;;;;;18.84;100.00;100032.31;1971959;73;31132;-78
2021/08/05 16:40:20;;;;;;;49.80;46.20;;;;;;;19.00;100.00;100033.73;1971944;73;30973;-75
2021/08/05 16:45:45;;;;;;;49.57;46.00;;;;;;;18.88;100.00;100016.92;1972211;73;31471;-74
2021/08/05 16:51:12;;;;;;;48.80;45.33;;;;;;;18.94;100.00;100012.68;1972140;73;30965;-75
2021/08/05 16:56:38;;;;;;;46.43;43.03;;;;;;;19.08;100.00;100003.22;1971903;73;30964;-74
2021/08/05 17:02:05;;;;;;;48.83;45.33;;;;;;;18.90;100.00;99993.48;1971877;72;30983;-75
2021/08/05 17:07:30;;;;;;;47.57;44.13;;;;;;;18.80;100.00;99982.75;1972011;73;30975;-75
2021/08/05 17:12:56;;;;;;;47.43;44.13;;;;;;;18.83;100.00;99977.80;1972212;73;31456;-75
2021/08/05 17:18:20;;;;;;;45.27;42.07;;;;;;;18.74;100.00;99959.68;1971937;73;30963;-75
2021/08/05 17:23:45;;;;;;;44.60;41.30;;;;;;;18.85;100.00;99943.91;1972091;73;33466;-77
2021/08/05 17:29:10;;;;;;;47.17;43.97;;;;;;;18.78;100.00;99947.14;1971901;73;31000;-77
2021/08/05 17:34:35;;;;;;;45.73;42.53;;;;;;;18.88;100.00;99933.33;1971928;73;30975;-74
2021/08/05 17:40:01;;;;;;;46.83;43.60;;;;;;;18.95;100.00;99924.27;1971908;73;31066;-74
2021/08/05 17:45:27;;;;;;;48.07;44.87;;;;;;;18.73;100.00;99912.23;1972076;73;33383;-77
2021/08/05 17:50:52;;;;;;;47.93;44.73;;;;;;;18.80;100.00;99906.20;1972139;73;31035;-76
2021/08/05 17:56:19;;;;;;;48.47;45.17;;;;;;;18.79;100.00;99900.33;1971881;73;31068;-77
2021/08/05 18:01:44;;;;;;;47.43;44.13;;;;;;;18.73;100.00;99896.17;1972148;73;31452;-77
2021/08/05 18:07:08;;;;;;;48.37;45.00;;;;;;;18.83;100.00;99889.16;1972155;72;31020;-74
2021/08/05 18:12:33;;;;;;;47.50;44.20;;;;;;;18.77;100.00;99892.05;1972145;73;31500;-75
2021/08/05 18:17:58;;;;;;;47.17;43.87;;;;;;;18.82;100.00;99894.00;1971931;73;30969;-75
2021/08/05 18:23:22;;;;;;;48.43;45.10;;;;;;;18.90;100.00;99882.33;1971893;73;31074;-75
2021/08/05 18:28:47;;;;;;;46.87;43.57;;;;;;;18.88;100.00;99896.75;1972196;73;30965;-74
2021/08/05 18:34:12;;;;;;;47.47;43.97;;;;;;;18.80;100.00;99895.53;1971912;73;30975;-74
2021/08/05 18:39:37;;;;;;;48.30;44.80;;;;;;;18.69;100.00;99892.45;1972139;73;30959;-76
2021/08/05 18:45:02;;;;;;;49.40;45.63;;;;;;;18.71;100.00;99893.48;1972161;73;31525;-75
2021/08/05 18:50:34;;;;;;;46.90;43.00;;;;;;;18.70;100.00;99887.66;1971985;73;31157;-77
2021/08/05 18:56:19;;;;;;;48.60;44.80;;;;;;;18.64;100.00;99888.50;1997668;71;33279;-76
2021/08/05 19:01:50;;;;;;;47.47;43.63;;;;;;;18.45;100.00;99891.16;1971913;73;31015;-76
2021/08/05 19:07:15;;;;;;;48.73;44.63;;;;;;;18.46;100.00;99884.38;1972159;73;31007;-76
2021/08/05 19:13:02;;;;;;;48.67;44.67;;;;;;;18.46;100.00;99882.38;2016468;71;31378;-75
2021/08/05 19:18:27;;;;;;;47.17;42.97;;;;;;;18.51;100.00;99888.33;1971884;73;31130;-78
2021/08/05 19:23:51;;;;;;;48.10;43.93;;;;;;;18.45;100.00;99875.70;1971903;73;30965;-74
2021/08/05 19:29:16;;;;;;;46.10;42.10;;;;;;;18.38;100.00;99866.50;1971986;73;31052;-76
2021/08/05 19:34:41;;;;;;;47.60;43.70;;;;;;;18.46;100.00;99868.91;1971907;73;31061;-76
2021/08/05 19:40:10;;;;;;;46.63;42.77;;;;;;;18.33;100.00;99865.94;1971946;73;31051;-75
2021/08/05 19:45:37;;;;;;;47.10;43.10;;;;;;;18.33;100.00;99857.50;1972170;73;31042;-75
2021/08/05 19:51:04;;;;;;;48.00;43.83;;;;;;;18.31;100.00;99864.09;1972123;72;34247;-75
2021/08/05 19:56:31;;;;;;;49.97;46.07;;;;;;;18.28;100.00;99858.59;1972121;73;31438;-76
2021/08/05 20:01:58;;;;;;;51.43;47.43;;;;;;;18.22;100.00;99867.08;1972143;73;31021;-74
2021/08/05 20:07:23;;;;;;;55.40;50.90;;;;;;;18.14;100.00;99856.20;1971998;73;30951;-78
2021/08/05 20:12:42;;;;;;;55.70;51.20;;;;;;;18.12;100.00;99855.77;1977690;72;30833;-75
2021/08/05 20:18:12;;;;;;;57.13;52.53;;;;;;;18.08;100.00;99854.03;1971955;73;31061;-75
2021/08/05 20:23:39;;;;;;;56.67;51.90;;;;;;;18.06;100.00;99852.16;1971920;73;31033;-75
2021/08/05 20:29:05;;;;;;;54.60;50.30;;;;;;;18.06;100.00;99852.97;1971899;73;31048;-74
2021/08/05 20:34:30;;;;;;;54.27;49.83;;;;;;;18.04;100.00;99845.51;1971861;72;31034;-75
2021/08/05 20:39:55;;;;;;;55.63;51.23;;;;;;;18.03;100.00;99846.67;1971095;71;31017;-78
2021/08/05 20:45:19;;;;;;;53.17;48.67;;;;;;;18.05;100.00;99844.34;1971933;73;30956;-78
2021/08/05 20:50:46;;;;;;;54.13;49.83;;;;;;;18.06;100.00;99831.08;1971981;73;31047;-74
2021/08/05 20:56:10;;;;;;;55.20;50.83;;;;;;;18.01;100.00;99831.37;1972109;73;30973;-75
2021/08/05 21:01:36;;;;;;;52.80;48.60;;;;;;;18.03;100.00;99826.19;1972232;73;31082;-74
2021/08/05 21:07:01;;;;;;;48.87;44.50;;;;;;;18.00;100.00;99826.33;1971882;73;30961;-76
2021/08/05 21:12:27;;;;;;;55.63;51.07;;;;;;;18.05;100.00;99825.25;1972078;72;33398;-77
2021/08/05 21:17:52;;;;;;;49.27;44.70;;;;;;;18.03;100.00;99829.00;1972091;73;33393;-76
2021/08/05 21:23:18;;;;;;;53.93;49.43;;;;;;;18.05;100.00;99821.86;1971885;73;30951;-75
2021/08/05 21:28:44;;;;;;;53.87;49.20;;;;;;;17.99;100.00;99820.47;1971927;73;31032;-75
2021/08/05 21:34:34;;;;;;;51.40;46.87;;;;;;;17.98;100.00;99820.23;2008573;71;30833;-76
2021/08/05 21:39:59;;;;;;;54.07;49.73;;;;;;;17.98;100.00;99813.80;1971891;73;31051;-74
2021/08/05 21:45:27;;;;;;;51.50;47.10;;;;;;;18.05;100.00;99805.00;1971874;73;31035;-76
2021/08/05 21:50:53;;;;;;;51.87;47.67;;;;;;;17.99;100.00;99826.67;1972097;72;31446;-76
2021/08/05 21:56:18;;;;;;;53.93;49.37;;;;;;;18.04;100.00;99810.97;1971975;73;31020;-76
2021/08/05 22:01:45;;;;;;;52.47;47.47;;;;;;;18.03;100.00;99802.30;1972139;73;33372;-75
2021/08/05 22:07:10;;;;;;;50.93;46.53;;;;;;;18.09;100.00;99800.88;1972115;73;31444;-74
2021/08/05 22:12:36;;;;;;;50.93;46.40;;;;;;;17.98;100.00;99789.91;1972097;72;31590;-75
2021/08/05 22:18:03;;;;;;;52.70;48.33;;;;;;;17.99;100.00;99785.35;1972131;73;31560;-74
2021/08/05 22:23:28;;;;;;;51.93;47.17;;;;;;;17.96;100.00;99786.66;1972057;73;33401;-78
2021/08/05 22:28:53;;;;;;;51.40;46.90;;;;;;;17.95;100.00;99779.41;1971876;73;31092;-78
2021/08/05 22:34:17;;;;;;;54.43;49.80;;;;;;;17.94;100.00;99784.79;1971943;72;31031;-75
2021/08/05 22:39:43;;;;;;;51.70;47.33;;;;;;;17.99;100.00;99775.52;1971858;72;31033;-75
2021/08/05 22:45:11;;;;;;;54.43;50.23;;;;;;;17.96;100.00;99776.25;1971897;73;31062;-76
2021/08/05 22:50:36;;;;;;;51.57;47.23;;;;;;;17.89;100.00;99770.41;1972166;73;30964;-74
2021/08/05 22:56:01;;;;;;;54.30;49.90;;;;;;;17.88;100.00;99766.59;1971864;73;31107;-74
2021/08/05 23:01:26;;;;;;;56.40;51.63;;;;;;;17.79;100.00;99761.13;1972095;72;33578;-76
2021/08/05 23:06:51;;;;;;;51.40;46.97;;;;;;;17.86;100.00;99756.28;1971919;73;30958;-75
2021/08/05 23:12:15;;;;;;;53.30;48.73;;;;;;;17.74;100.00;99755.19;1971894;73;31094;-74
2021/08/05 23:17:41;;;;;;;52.90;48.30;;;;;;;17.83;100.00;99752.80;1971938;73;31085;-77
2021/08/05 23:23:10;;;;;;;52.70;47.70;;;;;;;17.78;100.00;99755.28;1972103;73;31463;-76
2021/08/05 23:28:35;;;;;;;53.93;49.70;;;;;;;17.81;100.00;99748.93;1971944;73;30939;-75
2021/08/05 23:34:00;;;;;;;53.13;48.53;;;;;;;17.77;100.00;99750.83;1972139;73;30960;-75
2021/08/05 23:39:24;;;;;;;51.00;46.43;;;;;;;17.75;100.00;99746.17;1972135;73;30977;-75
2021/08/05 23:44:52;;;;;;;52.87;48.33;;;;;;;17.73;100.00;99747.11;1972126;73;31465;-74
2021/08/05 23:50:16;;;;;;;51.00;46.77;;;;;;;17.66;100.00;99744.12;1971942;73;31011;-75
2021/08/05 23:55:42;;;;;;;53.00;48.47;;;;;;;17.58;100.00;99741.71;1972134;73;31714;-74
